KBKT/BKT METAR and TAF weather

Enter ICAO airport designator
Station Type Date Time Source
KBKT METAR 2019/06/16 12:55 UTC NOAA

KBKT 161255Z AUTO 22012G17KT 10SM CLR 23/18 A3002 RMK AO1 T02330175


Station Type Date Time Source
KBKT Decoded METAR 2019/06/16 12:55 UTC NOAA

Ft. Pickett / Blackstone, VA, United States (KBKT) 37-05N 077-57W
Jun 16, 2019 - 08:55 AM EDT / 2019.06.16 1255 UTC
Wind: from the SW (220 degrees) at 14 MPH (12 KT) gusting to 20 MPH (17 KT):0
Visibility: 10 mile(s):0
Sky conditions: clear
Temperature: 73.9 F (23.3 C)
Dew Point: 63.5 F (17.5 C)
Relative Humidity: 69%
Pressure (altimeter): 30.02 in. Hg (1016 hPa)
ob: KBKT 161255Z AUTO 22012G17KT 10SM CLR 23/18 A3002 RMK AO1 T02330175
cycle: 13

Station Type Date Time Source
KBKT TAF UTC NOAA

Error!

Example: see airport list